Time;durP1;ratioP1;P1;durP2;ratioP2;P2;SDS_P1;SDS_P2;PMS_P1;PMS_P2;Temp;Humidity;BMP_temperature;BMP_pressure;BME280_temperature;BME280_humidity;BME280_pressure;Samples;Min_cycle;Max_cycle;Signal;HPM_P1;HPM_P2
2024/04/21 00:01:32;;;;;;;4.60;1.90;;;;;;;13.21;65.92;97952.10;77806;1304;3029528;-65
2024/04/21 00:03:59;;;;;;;7.50;1.90;;;;;;;13.20;66.10;97953.85;78998;1306;3013372;-66
2024/04/21 00:06:26;;;;;;;5.60;2.00;;;;;;;13.20;66.13;97948.86;79194;1305;3011960;-66
2024/04/21 00:08:54;;;;;;;16.30;1.90;;;;;;;13.20;66.29;97945.55;77887;1302;3026058;-66
2024/04/21 00:11:20;;;;;;;7.70;1.80;;;;;;;13.19;66.15;97946.02;79057;1306;3012952;-65
2024/04/21 00:13:47;;;;;;;8.30;1.80;;;;;;;13.23;66.15;97945.33;78916;1306;3012781;-63
2024/04/21 00:16:15;;;;;;;9.30;1.60;;;;;;;13.24;66.25;97950.06;78000;1305;3028192;-64
2024/04/21 00:18:42;;;;;;;9.60;1.60;;;;;;;13.24;66.24;97941.31;79056;1305;3014157;-65
2024/04/21 00:21:11;;;;;;;4.70;2.00;;;;;;;13.20;66.65;97930.39;79047;1302;3011883;-64
2024/04/21 00:23:39;;;;;;;6.50;1.80;;;;;;;13.19;66.95;97924.56;77884;1305;3052900;-64
2024/04/21 00:26:06;;;;;;;8.80;2.30;;;;;;;13.19;67.04;97917.69;79008;1305;3013397;-65
2024/04/21 00:28:33;;;;;;;6.70;2.50;;;;;;;13.19;66.99;97919.49;79194;1301;3011699;-64
2024/04/21 00:31:01;;;;;;;12.80;2.00;;;;;;;13.18;67.25;97920.23;77902;1301;3049675;-64
2024/04/21 00:33:28;;;;;;;4.40;1.70;;;;;;;13.14;67.91;97900.92;78989;1305;3015320;-66
2024/04/21 00:35:55;;;;;;;8.90;2.20;;;;;;;13.15;68.18;97908.45;78905;1303;3012990;-66
2024/04/21 00:38:23;;;;;;;3.40;1.50;;;;;;;13.18;67.92;97900.70;77660;1301;3051303;-65
2024/04/21 00:40:50;;;;;;;3.60;1.50;;;;;;;13.21;67.79;97911.52;79088;1306;3013798;-64
2024/04/21 00:43:16;;;;;;;11.70;2.00;;;;;;;13.22;67.85;97908.63;79087;1300;3011544;-66
2024/04/21 00:45:45;;;;;;;7.20;2.90;;;;;;;13.21;68.10;97916.27;77962;1306;3026519;-66
2024/04/21 00:48:12;;;;;;;9.70;1.90;;;;;;;13.22;68.49;97916.05;79120;1301;3014390;-66
2024/04/21 00:50:40;;;;;;;12.50;2.00;;;;;;;13.20;68.86;97916.19;79148;1305;3013838;-65
2024/04/21 00:53:09;;;;;;;7.30;1.80;;;;;;;13.19;68.94;97908.20;77740;1303;3052671;-66
2024/04/21 00:55:37;;;;;;;20.80;2.80;;;;;;;13.20;68.99;97907.55;79193;1306;3013581;-67
2024/04/21 00:58:07;;;;;;;11.20;2.20;;;;;;;13.25;69.24;97910.64;78706;1302;3013686;-66
2024/04/21 01:00:35;;;;;;;19.50;2.30;;;;;;;13.28;69.09;97914.20;78993;1302;3014207;-66
2024/04/21 01:03:02;;;;;;;18.50;2.50;;;;;;;13.31;69.22;97910.60;79132;1303;3011697;-65
2024/04/21 01:05:31;;;;;;;15.60;2.40;;;;;;;13.31;69.54;97920.42;77824;1304;3049698;-66
2024/04/21 01:07:57;;;;;;;23.40;3.60;;;;;;;13.30;69.70;97932.29;79140;1307;3015850;-66
2024/04/21 01:10:24;;;;;;;28.00;4.40;;;;;;;13.29;70.22;97933.46;78966;1307;3013151;-65
2024/04/21 01:12:53;;;;;;;37.00;4.50;;;;;;;13.32;70.08;97932.30;77916;1300;3053141;-65
2024/04/21 01:15:19;;;;;;;29.90;4.50;;;;;;;13.32;70.33;97934.02;79032;1301;3013271;-65
2024/04/21 01:17:47;;;;;;;16.20;3.70;;;;;;;13.33;70.48;97930.23;79041;1305;3013264;-65
2024/04/21 01:20:15;;;;;;;15.30;2.60;;;;;;;13.35;70.26;97933.21;78010;1303;3051252;-65
2024/04/21 01:22:52;;;;;;;11.80;2.20;;;;;;;13.36;70.66;97928.94;79229;1303;3013658;-68
2024/04/21 01:25:20;;;;;;;7.80;1.70;;;;;;;13.33;71.06;97922.71;77936;1301;3070478;-65
2024/04/21 01:27:46;;;;;;;10.20;3.10;;;;;;;13.34;71.03;97919.80;79389;1301;3013783;-64
2024/04/21 01:30:13;;;;;;;9.20;2.30;;;;;;;13.32;71.32;97909.42;79145;1301;3013247;-65
2024/04/21 01:32:41;;;;;;;10.90;2.20;;;;;;;13.32;71.63;97914.90;77880;1302;3026485;-65
2024/04/21 01:35:07;;;;;;;12.00;2.20;;;;;;;13.31;71.68;97921.65;78961;1305;3013922;-65
2024/04/21 01:37:37;;;;;;;8.10;2.80;;;;;;;13.31;72.22;97921.52;78941;1301;3013634;-67
2024/04/21 01:40:06;;;;;;;8.60;2.20;;;;;;;13.87;70.69;97919.10;77892;1305;3068326;-65
2024/04/21 01:42:33;;;;;;;7.50;2.10;;;;;;;14.36;68.89;97911.38;79252;1305;3013058;-66
2024/04/21 01:44:59;;;;;;;9.10;2.20;;;;;;;14.46;68.28;97901.42;79119;1301;3014075;-65
2024/04/21 01:47:27;;;;;;;7.00;2.10;;;;;;;14.36;68.39;97897.27;77934;1304;3052708;-63
2024/04/21 01:49:54;;;;;;;10.30;2.70;;;;;;;14.17;69.41;97897.13;78945;1305;3013972;-63
2024/04/21 01:52:21;;;;;;;14.40;2.40;;;;;;;14.01;70.18;97890.41;79128;1304;3011568;-64
2024/04/21 01:54:49;;;;;;;11.30;2.40;;;;;;;13.83;70.94;97897.80;77930;1306;3026621;-65
2024/04/21 01:57:15;;;;;;;9.20;2.40;;;;;;;13.76;71.53;97899.02;79082;1303;3012779;-64
2024/04/21 01:59:42;;;;;;;12.80;2.70;;;;;;;13.69;71.86;97893.36;78952;1301;3013517;-63
2024/04/21 02:02:10;;;;;;;10.90;2.50;;;;;;;13.61;72.82;97895.20;77701;1306;3026306;-66
2024/04/21 02:04:36;;;;;;;7.70;2.30;;;;;;;13.59;73.20;97900.71;79111;1305;3013340;-65
2024/04/21 02:07:05;;;;;;;7.30;2.20;;;;;;;13.58;73.39;97898.34;78923;1314;3011640;-63
2024/04/21 02:09:32;;;;;;;8.30;1.80;;;;;;;13.53;73.96;97896.84;77736;1301;3069004;-63
2024/04/21 02:11:59;;;;;;;5.50;1.50;;;;;;;13.50;74.28;97901.73;79088;1305;3018507;-65
2024/04/21 02:14:26;;;;;;;9.30;1.70;;;;;;;14.02;73.55;97906.83;79327;1305;3011755;-64
2024/04/21 02:16:54;;;;;;;7.50;2.00;;;;;;;14.58;71.48;97903.52;77763;1300;3025897;-63
2024/04/21 02:19:21;;;;;;;11.40;2.40;;;;;;;14.55;71.34;97910.48;78874;1300;3013527;-62
2024/04/21 02:21:47;;;;;;;7.10;2.00;;;;;;;14.50;71.46;97920.04;79085;1300;3011854;-64
2024/04/21 02:24:15;;;;;;;7.00;1.90;;;;;;;14.36;72.09;97928.87;77843;1305;3027061;-66
2024/04/21 02:26:42;;;;;;;7.50;1.90;;;;;;;14.23;72.78;97928.54;79175;1305;3013063;-65
2024/04/21 02:29:08;;;;;;;7.40;2.50;;;;;;;14.02;73.74;97925.87;79135;1300;3014023;-66
2024/04/21 02:31:37;;;;;;;9.40;2.60;;;;;;;13.94;74.21;97909.20;77880;1301;3026655;-64
2024/04/21 02:34:04;;;;;;;11.80;2.20;;;;;;;13.89;74.76;97918.50;79158;1300;3013395;-64
2024/04/21 02:36:30;;;;;;;9.80;2.70;;;;;;;13.81;75.29;97927.73;79097;1306;3011501;-62
2024/04/21 02:38:58;;;;;;;8.30;2.20;;;;;;;13.72;75.83;97925.79;78153;1301;3027206;-65
2024/04/21 02:41:25;;;;;;;9.00;2.40;;;;;;;13.71;76.29;97935.22;79078;1300;3011532;-63
2024/04/21 02:43:52;;;;;;;11.60;2.10;;;;;;;14.24;74.96;97927.90;79118;1301;3012211;-65
2024/04/21 02:46:20;;;;;;;7.30;1.80;;;;;;;14.71;73.13;97939.60;78020;1302;3029059;-67
2024/04/21 02:48:47;;;;;;;6.80;2.30;;;;;;;14.87;72.52;97933.23;79017;1306;3014939;-64
2024/04/21 02:51:15;;;;;;;9.20;2.20;;;;;;;14.80;72.43;97930.94;79099;1306;3011591;-67
2024/04/21 02:53:43;;;;;;;9.50;2.30;;;;;;;14.62;73.31;97931.35;77757;1301;3069047;-68
2024/04/21 02:56:09;;;;;;;12.70;2.60;;;;;;;14.40;74.33;97945.73;79023;1300;3018953;-67
2024/04/21 02:58:36;;;;;;;9.30;2.00;;;;;;;14.25;75.29;97950.88;78878;1301;3012941;-64
2024/04/21 03:01:05;;;;;;;7.90;2.10;;;;;;;14.22;75.65;97949.73;77991;1301;3025943;-66
2024/04/21 03:03:31;;;;;;;15.70;3.10;;;;;;;14.09;76.96;97949.80;79130;1305;3015001;-63
2024/04/21 03:05:58;;;;;;;5.10;1.70;;;;;;;14.02;78.03;97944.55;79170;1305;3011830;-65
2024/04/21 03:08:27;;;;;;;11.30;1.80;;;;;;;14.53;76.83;97949.70;78050;1300;3069102;-64
2024/04/21 03:10:54;;;;;;;10.90;2.60;;;;;;;14.92;75.53;97954.35;79062;1304;3013018;-64
2024/04/21 03:13:20;;;;;;;10.90;2.40;;;;;;;14.94;75.23;97961.97;78986;1301;3013164;-66
2024/04/21 03:15:48;;;;;;;6.40;2.20;;;;;;;14.79;75.47;97958.48;77817;1306;3025736;-67
2024/04/21 03:18:16;;;;;;;6.90;2.40;;;;;;;14.64;76.34;97959.05;79135;1305;3018573;-64
2024/04/21 03:20:42;;;;;;;6.90;2.60;;;;;;;14.39;77.80;97955.46;79228;1305;3013871;-62
2024/04/21 03:23:10;;;;;;;6.70;2.10;;;;;;;14.32;78.12;97948.05;77642;1307;3027580;-65
2024/04/21 03:25:37;;;;;;;7.40;2.70;;;;;;;14.17;79.14;97943.35;79155;1300;3013419;-65
2024/04/21 03:28:03;;;;;;;9.00;1.90;;;;;;;14.07;79.59;97947.69;78899;1306;3012995;-64
2024/04/21 03:30:31;;;;;;;11.40;1.80;;;;;;;14.58;78.60;97949.19;77899;1301;3025967;-66
2024/04/21 03:32:58;;;;;;;18.90;3.00;;;;;;;15.04;76.64;97946.27;79148;1314;3013508;-65
2024/04/21 03:35:25;;;;;;;7.60;2.40;;;;;;;15.01;76.54;97953.68;79071;1306;3013039;-65
2024/04/21 03:37:53;;;;;;;12.30;2.20;;;;;;;14.90;76.66;97955.15;77784;1306;3026148;-64
2024/04/21 03:40:20;;;;;;;8.40;2.60;;;;;;;14.66;77.64;97954.93;79173;1300;3018926;-66
2024/04/21 03:42:46;;;;;;;6.00;2.30;;;;;;;14.51;78.33;97946.02;78945;1301;3011727;-67
2024/04/21 03:45:14;;;;;;;7.90;2.70;;;;;;;14.38;79.29;97950.15;77595;1301;3026629;-67
2024/04/21 03:47:42;;;;;;;12.70;2.90;;;;;;;14.22;80.11;97950.78;78862;1305;3013811;-65
2024/04/21 03:50:08;;;;;;;8.40;1.90;;;;;;;14.17;80.63;97946.77;79047;1306;3013855;-68
2024/04/21 03:52:36;;;;;;;6.80;2.20;;;;;;;14.63;79.53;97943.21;78254;1306;3068624;-67
2024/04/21 03:55:03;;;;;;;11.40;2.80;;;;;;;15.03;77.82;97944.27;79133;1306;3012780;-66
2024/04/21 03:57:30;;;;;;;11.40;2.60;;;;;;;15.07;77.42;97945.27;79079;1301;3011755;-66
2024/04/21 03:59:59;;;;;;;11.20;2.40;;;;;;;14.91;78.18;97955.42;78202;1306;3053243;-69
2024/04/21 04:02:28;;;;;;;13.40;2.80;;;;;;;14.70;78.60;97959.66;79192;1305;3013131;-67
2024/04/21 04:04:54;;;;;;;8.50;2.80;;;;;;;14.53;79.82;97961.14;79264;1304;3011820;-66
2024/04/21 04:07:22;;;;;;;13.70;2.60;;;;;;;14.38;80.40;97961.56;78252;1301;3068748;-67
2024/04/21 04:09:49;;;;;;;8.30;2.40;;;;;;;14.28;81.40;97962.77;79374;1301;3013278;-67
2024/04/21 04:12:15;;;;;;;11.50;2.30;;;;;;;14.64;80.72;97965.63;79161;1301;3012230;-66
2024/04/21 04:14:43;;;;;;;6.50;2.50;;;;;;;14.97;79.22;97971.51;77653;1301;3025866;-65
2024/04/21 04:17:10;;;;;;;7.10;2.10;;;;;;;15.04;78.84;97974.82;79283;1303;3012762;-64
2024/04/21 04:19:36;;;;;;;12.00;2.10;;;;;;;14.90;79.15;97973.43;78981;1310;3011547;-66
2024/04/21 04:22:04;;;;;;;15.40;2.80;;;;;;;14.64;80.37;97976.40;77823;1301;3026223;-66
2024/04/21 04:24:31;;;;;;;8.50;2.80;;;;;;;14.54;81.18;97981.29;79226;1301;3012840;-67
2024/04/21 04:26:58;;;;;;;7.10;2.60;;;;;;;14.45;81.63;97988.56;79241;1301;3013213;-67
2024/04/21 04:29:26;;;;;;;9.90;2.10;;;;;;;14.29;83.09;97996.80;77872;1306;3053047;-67
2024/04/21 04:31:52;;;;;;;12.40;2.40;;;;;;;14.83;81.83;97993.01;79080;1300;3020018;-64
2024/04/21 04:34:19;;;;;;;10.40;3.00;;;;;;;15.10;80.26;97996.27;79201;1304;3013971;-65
2024/04/21 04:36:47;;;;;;;6.30;2.50;;;;;;;15.16;80.35;98002.55;77980;1301;3027848;-67
2024/04/21 04:39:14;;;;;;;10.20;2.60;;;;;;;15.16;80.13;98009.79;79210;1300;3013051;-67
2024/04/21 04:41:41;;;;;;;11.50;4.00;;;;;;;15.01;80.51;98018.36;78972;1301;3011642;-65
2024/04/21 04:44:09;;;;;;;15.00;3.90;;;;;;;14.68;82.17;98019.06;78005;1305;3052842;-65
2024/04/21 04:46:35;;;;;;;10.60;3.40;;;;;;;14.52;82.94;98015.14;79062;1316;3016165;-66
2024/04/21 04:49:02;;;;;;;13.60;5.00;;;;;;;15.05;81.34;98016.17;79208;1305;3013229;-67
2024/04/21 04:51:30;;;;;;;16.80;4.80;;;;;;;15.27;79.48;98016.29;77772;1306;3069279;-65
2024/04/21 04:53:57;;;;;;;13.70;4.90;;;;;;;15.33;79.40;98020.71;79057;1300;3012740;-67
2024/04/21 04:56:24;;;;;;;15.40;6.30;;;;;;;15.09;80.18;98018.41;79178;1303;3011621;-65
2024/04/21 04:58:51;;;;;;;11.00;6.50;;;;;;;14.78;81.42;98032.80;77942;1305;3026013;-66
2024/04/21 05:01:18;;;;;;;13.20;6.20;;;;;;;14.61;82.11;98032.92;79173;1305;3013516;-67
2024/04/21 05:03:45;;;;;;;11.50;6.10;;;;;;;14.49;82.52;98035.89;79079;1301;3011301;-66
2024/04/21 05:06:14;;;;;;;10.40;3.80;;;;;;;14.27;81.41;98034.70;77972;1301;3026278;-66
2024/04/21 05:08:41;;;;;;;9.40;4.30;;;;;;;14.80;80.02;98032.33;79137;1301;3011601;-69
2024/04/21 05:11:07;;;;;;;10.20;4.40;;;;;;;15.06;78.29;98035.85;79223;1301;3011845;-63
2024/04/21 05:13:35;;;;;;;9.00;4.40;;;;;;;15.05;78.36;98033.27;77986;1306;3054291;-65
2024/04/21 05:16:02;;;;;;;8.00;4.30;;;;;;;14.88;79.27;98037.14;79248;1301;3012624;-66
2024/04/21 05:18:30;;;;;;;10.70;4.00;;;;;;;14.86;79.57;98040.98;79189;1305;3012851;-68
2024/04/21 05:20:58;;;;;;;10.90;3.40;;;;;;;14.76;80.35;98037.23;78111;1301;3070831;-68
2024/04/21 05:23:24;;;;;;;9.70;3.80;;;;;;;14.67;80.82;98032.36;79384;1305;3013227;-66
2024/04/21 05:25:52;;;;;;;9.10;2.70;;;;;;;14.55;82.17;98038.94;79109;1300;3011772;-69
2024/04/21 05:28:20;;;;;;;10.10;3.00;;;;;;;15.23;80.51;98037.55;77976;1306;3051288;-67
2024/04/21 05:30:47;;;;;;;9.20;2.80;;;;;;;15.51;78.42;98035.45;79181;1306;3012923;-66
2024/04/21 05:33:13;;;;;;;6.80;2.90;;;;;;;15.45;78.46;98029.59;79219;1305;3013133;-68
2024/04/21 05:35:41;;;;;;;7.50;3.00;;;;;;;15.49;78.23;98029.84;77934;1300;3025775;-67
2024/04/21 05:38:08;;;;;;;10.10;3.50;;;;;;;15.40;78.75;98035.05;79060;1306;3012950;-69
2024/04/21 05:40:35;;;;;;;7.80;3.30;;;;;;;15.34;78.77;98035.27;79058;1301;3011718;-68
2024/04/21 05:43:03;;;;;;;9.80;3.70;;;;;;;15.25;79.06;98034.73;77966;1305;3026305;-67
2024/04/21 05:45:30;;;;;;;8.40;3.60;;;;;;;15.07;79.57;98034.48;79145;1306;3020842;-66
2024/04/21 05:47:57;;;;;;;13.30;2.60;;;;;;;15.22;79.58;98029.62;79227;1301;3011751;-68
2024/04/21 05:50:25;;;;;;;11.10;2.80;;;;;;;15.65;77.58;98025.06;77806;1301;3068228;-65
2024/04/21 05:52:52;;;;;;;8.10;3.20;;;;;;;16.06;75.68;98024.98;79215;1300;3013434;-68
2024/04/21 05:55:18;;;;;;;7.50;3.10;;;;;;;16.27;75.03;98014.68;79011;1301;3011707;-68
2024/04/21 05:57:47;;;;;;;7.00;3.40;;;;;;;16.26;74.47;98019.38;77857;1307;3029140;-67
2024/04/21 06:00:15;;;;;;;5.60;2.80;;;;;;;16.02;75.50;98019.56;79691;1306;3013657;-69
2024/04/21 06:02:41;;;;;;;10.20;3.10;;;;;;;16.00;75.30;98019.61;79164;1306;3013372;-67
2024/04/21 06:05:09;;;;;;;8.50;2.70;;;;;;;15.77;75.56;98017.27;77877;1305;3067537;-68
2024/04/21 06:07:37;;;;;;;10.10;2.90;;;;;;;15.73;75.28;98012.89;79175;1300;3013655;-68
2024/04/21 06:10:04;;;;;;;13.30;3.80;;;;;;;15.66;75.31;98019.58;79184;1300;3011642;-69
2024/04/21 06:12:32;;;;;;;7.50;2.90;;;;;;;15.52;76.35;98017.02;78030;1305;3053311;-69
2024/04/21 06:14:59;;;;;;;9.20;3.10;;;;;;;15.59;76.07;98013.10;79066;1300;3013152;-68
2024/04/21 06:17:26;;;;;;;12.70;4.20;;;;;;;15.50;76.25;98013.90;79012;1301;3011666;-69
2024/04/21 06:19:54;;;;;;;5.80;2.90;;;;;;;15.52;76.18;98003.95;77861;1301;3068745;-70
2024/04/21 06:22:21;;;;;;;6.20;2.60;;;;;;;16.07;74.59;98006.70;79107;1306;3013639;-68
2024/04/21 06:24:47;;;;;;;10.50;2.90;;;;;;;16.56;71.72;98009.36;79135;1300;3011664;-67
2024/04/21 06:27:15;;;;;;;8.70;3.10;;;;;;;16.64;69.16;98007.77;78015;1303;3027975;-68
2024/04/21 06:29:42;;;;;;;9.50;3.30;;;;;;;16.40;69.28;97996.92;79219;1300;3013214;-69
2024/04/21 06:32:09;;;;;;;7.30;3.10;;;;;;;16.40;69.58;97995.36;79199;1301;3011673;-68
2024/04/21 06:34:37;;;;;;;12.00;3.70;;;;;;;16.26;69.56;98003.61;77917;1304;3069133;-67
2024/04/21 06:37:04;;;;;;;11.60;3.70;;;;;;;16.12;70.43;98006.30;79151;1301;3018690;-68
2024/04/21 06:39:30;;;;;;;12.70;4.60;;;;;;;16.10;71.46;98005.46;79053;1306;3011787;-68
2024/04/21 06:41:58;;;;;;;11.90;4.70;;;;;;;16.19;71.44;98007.16;77958;1305;3026863;-67
2024/04/21 06:44:25;;;;;;;13.90;5.30;;;;;;;16.17;72.04;98009.14;79122;1305;3015772;-67
2024/04/21 06:46:52;;;;;;;11.90;4.50;;;;;;;16.18;72.92;98011.83;79171;1301;3011747;-67
2024/04/21 06:49:19;;;;;;;11.60;4.50;;;;;;;16.24;72.89;98009.97;77843;1301;3027442;-67
2024/04/21 06:51:46;;;;;;;12.50;5.00;;;;;;;16.24;71.62;98013.13;79099;1305;3013681;-67
2024/04/21 06:54:13;;;;;;;13.00;4.40;;;;;;;16.25;70.71;98012.86;79079;1306;3011596;-69
2024/04/21 06:56:42;;;;;;;12.70;3.90;;;;;;;16.31;71.93;98021.08;78010;1303;3025813;-68
2024/04/21 06:59:08;;;;;;;10.80;3.20;;;;;;;16.38;72.99;98023.73;79152;1306;3012929;-67
2024/04/21 07:01:35;;;;;;;3.80;1.60;;;;;;;16.52;73.01;98022.90;79067;1301;3011948;-67
2024/04/21 07:04:03;;;;;;;5.20;1.90;;;;;;;17.18;71.01;98024.19;77961;1301;3068740;-65
2024/04/21 07:06:30;;;;;;;5.10;2.20;;;;;;;17.71;67.80;98025.22;79124;1300;3013430;-66
2024/04/21 07:08:56;;;;;;;5.90;2.20;;;;;;;17.80;66.82;98020.48;79113;1301;3013352;-67
2024/04/21 07:11:24;;;;;;;7.80;2.00;;;;;;;17.71;67.17;98014.41;77705;1306;3053220;-64
2024/04/21 07:13:51;;;;;;;6.10;2.10;;;;;;;17.63;67.01;98017.27;79106;1306;3013542;-70
2024/04/21 07:16:17;;;;;;;5.90;2.30;;;;;;;17.60;67.76;98022.73;79114;1301;3011893;-69
2024/04/21 07:18:45;;;;;;;4.60;2.20;;;;;;;17.52;67.53;98020.43;77999;1305;3027364;-69
2024/04/21 07:21:12;;;;;;;8.10;1.90;;;;;;;17.45;67.16;98023.34;79157;1305;3013141;-66
2024/04/21 07:23:39;;;;;;;8.10;1.70;;;;;;;17.29;66.49;98025.52;79050;1301;3013190;-65
2024/04/21 07:26:07;;;;;;;8.20;1.90;;;;;;;17.22;67.17;98022.77;78025;1300;3053461;-66
2024/04/21 07:28:34;;;;;;;4.20;1.90;;;;;;;17.33;67.68;98016.23;79482;1302;3018080;-70
2024/04/21 07:31:01;;;;;;;9.10;2.30;;;;;;;17.51;67.96;98017.55;79698;1301;3013440;-69
2024/04/21 07:33:29;;;;;;;6.80;1.70;;;;;;;17.65;66.36;98016.86;78517;1306;3028226;-69
2024/04/21 07:35:56;;;;;;;6.10;1.70;;;;;;;17.58;65.55;98016.21;79162;1301;3013100;-67
2024/04/21 07:38:22;;;;;;;4.00;1.50;;;;;;;17.57;65.23;98007.63;79112;1302;3011622;-69
2024/04/21 07:40:50;;;;;;;5.40;1.70;;;;;;;17.63;64.79;98002.11;77984;1301;3053163;-69
2024/04/21 07:43:18;;;;;;;6.40;1.40;;;;;;;17.61;64.69;97997.28;79306;1303;3013710;-68
2024/04/21 07:45:50;;;;;;;4.30;1.30;;;;;;;17.56;64.22;97998.98;79147;1304;3011494;-67
2024/04/21 07:48:18;;;;;;;3.40;1.40;;;;;;;17.60;63.39;98004.45;78105;1302;3070417;-74
2024/04/21 07:50:45;;;;;;;2.50;1.10;;;;;;;17.63;62.22;98010.23;79067;1302;3013428;-69
2024/04/21 07:53:11;;;;;;;4.60;1.50;;;;;;;17.68;61.77;98007.88;79113;1302;3011977;-67
2024/04/21 07:55:39;;;;;;;5.70;1.50;;;;;;;17.55;61.47;98008.47;77944;1303;3026159;-66
2024/04/21 07:58:06;;;;;;;4.10;1.30;;;;;;;17.66;61.99;98007.61;79809;1304;3018842;-67
2024/04/21 08:00:38;;;;;;;8.20;1.70;;;;;;;17.86;61.86;98005.71;79372;1301;3011421;-67
2024/04/21 08:03:06;;;;;;;3.30;1.40;;;;;;;17.98;60.24;98005.92;78003;1300;3068593;-68
2024/04/21 08:05:33;;;;;;;5.90;1.40;;;;;;;18.03;60.32;97995.08;80042;1301;3013003;-70
2024/04/21 08:08:01;;;;;;;5.90;1.40;;;;;;;17.97;60.15;97992.39;79504;1301;3013277;-70
2024/04/21 08:10:29;;;;;;;4.70;1.30;;;;;;;18.03;60.05;97995.40;77958;1306;3052493;-68
2024/04/21 08:12:56;;;;;;;4.90;1.20;;;;;;;18.03;60.11;98001.31;79207;1305;3018535;-68
2024/04/21 08:15:22;;;;;;;4.70;1.30;;;;;;;18.18;60.25;97994.89;79057;1301;3011412;-68
2024/04/21 08:17:50;;;;;;;7.30;2.10;;;;;;;18.29;60.81;97991.52;78037;1301;3026249;-68
2024/04/21 08:20:17;;;;;;;5.70;1.90;;;;;;;18.39;61.04;97994.42;79186;1305;3013372;-69
2024/04/21 08:22:44;;;;;;;6.10;1.60;;;;;;;18.53;60.16;97992.55;79110;1304;3012045;-68
2024/04/21 08:25:12;;;;;;;5.00;1.30;;;;;;;18.54;59.86;97994.13;77909;1301;3026589;-68
2024/04/21 08:27:38;;;;;;;7.90;1.60;;;;;;;18.52;59.90;97995.27;79335;1301;3013551;-66
2024/04/21 08:30:07;;;;;;;6.50;1.60;;;;;;;18.55;60.00;97992.46;79033;1306;3013218;-66
2024/04/21 08:32:35;;;;;;;7.70;1.40;;;;;;;18.43;58.72;97987.83;78015;1301;3068626;-67
2024/04/21 08:35:02;;;;;;;6.10;1.50;;;;;;;18.59;58.13;97980.22;79277;1300;3011484;-69
2024/04/21 08:37:28;;;;;;;3.00;0.90;;;;;;;18.88;57.29;97974.36;79120;1301;3013060;-69
2024/04/21 08:39:58;;;;;;;5.20;1.20;;;;;;;19.11;55.35;97978.26;78028;1301;3026995;-70
2024/04/21 08:42:25;;;;;;;4.10;1.10;;;;;;;19.19;53.21;97978.92;79337;1301;3012959;-70
2024/04/21 08:44:52;;;;;;;8.00;1.10;;;;;;;19.06;51.68;97980.63;79329;1303;3012230;-68
2024/04/21 08:47:20;;;;;;;4.60;1.00;;;;;;;19.02;51.29;97968.87;78011;1304;3069109;-68
2024/04/21 08:49:46;;;;;;;2.70;0.90;;;;;;;19.01;50.86;97974.34;79101;1300;3018465;-68
2024/04/21 08:52:13;;;;;;;2.70;0.80;;;;;;;19.07;50.87;97976.16;79096;1300;3013354;-67
2024/04/21 08:54:41;;;;;;;5.80;1.00;;;;;;;19.17;49.96;97971.09;78035;1301;3025611;-68
2024/04/21 08:57:08;;;;;;;3.80;1.00;;;;;;;19.26;50.03;97964.16;79301;1305;3013065;-68
2024/04/21 08:59:36;;;;;;;5.00;0.90;;;;;;;19.28;49.60;97971.09;79268;1301;3011642;-69
2024/04/21 09:02:04;;;;;;;3.60;1.10;;;;;;;19.38;49.92;97974.42;78226;1301;3069153;-67
2024/04/21 09:04:31;;;;;;;5.30;1.10;;;;;;;19.35;49.41;97968.98;79296;1301;3013552;-67
2024/04/21 09:06:57;;;;;;;5.20;1.20;;;;;;;19.27;48.84;97962.68;79176;1301;3011976;-67
2024/04/21 09:09:25;;;;;;;4.60;0.90;;;;;;;19.47;48.71;97965.76;78214;1309;3026745;-69
2024/04/21 09:11:52;;;;;;;5.90;0.70;;;;;;;19.51;45.63;97951.75;79130;1305;3013976;-69
2024/04/21 09:14:22;;;;;;;9.80;0.90;;;;;;;19.59;43.40;97950.29;79277;1301;3011424;-68
2024/04/21 09:16:50;;;;;;;9.90;0.80;;;;;;;19.59;42.57;97948.69;77969;1301;3069115;-69
2024/04/21 09:19:16;;;;;;;8.50;0.60;;;;;;;19.71;41.81;97958.28;79078;1300;3013412;-69
2024/04/21 09:21:43;;;;;;;3.60;0.80;;;;;;;19.72;41.83;97966.49;79171;1301;3011943;-67
2024/04/21 09:24:11;;;;;;;8.70;0.80;;;;;;;19.84;42.06;97968.81;77955;1305;3026441;-68
2024/04/21 09:26:37;;;;;;;16.30;1.40;;;;;;;19.78;42.22;97958.48;79686;1300;3013064;-67
2024/04/21 09:29:32;;;;;;;7.20;0.50;;;;;;;19.69;42.51;97960.44;80580;1302;3013041;-67
2024/04/21 09:31:58;;;;;;;12.70;1.00;;;;;;;19.41;43.33;97977.86;79518;1302;3012386;-67
2024/04/21 09:34:26;;;;;;;9.40;1.20;;;;;;;19.21;46.35;97991.04;79348;1302;3013168;-66
2024/04/21 09:36:56;;;;;;;8.30;1.40;;;;;;;19.10;48.79;97984.02;78236;1307;3051855;-65
2024/04/21 09:39:22;;;;;;;9.10;1.60;;;;;;;18.94;50.03;97999.63;79331;1302;3011799;-65
2024/04/21 09:41:51;;;;;;;8.90;1.60;;;;;;;18.79;50.71;97992.97;78991;1307;3013753;-67
2024/04/21 09:44:18;;;;;;;12.90;2.20;;;;;;;18.85;51.49;98018.52;78182;1304;3050538;-73
2024/04/21 09:46:46;;;;;;;13.90;1.80;;;;;;;18.87;51.85;98000.75;79491;1304;3013614;-69
2024/04/21 09:49:16;;;;;;;12.30;1.70;;;;;;;18.72;52.24;98007.10;79619;1299;3013525;-74
2024/04/21 09:51:45;;;;;;;6.40;1.40;;;;;;;18.37;52.54;98019.20;78035;1306;3052606;-70
2024/04/21 17:09:28;;;;;;;1.50;0.50;;;;;;;8.38;75.85;98494.61;80097;1301;3013095;-65
2024/04/21 17:11:55;;;;;;;0.60;0.60;;;;;;;8.37;75.90;98503.06;79270;1304;3011593;-63
2024/04/21 17:14:21;;;;;;;1.40;0.70;;;;;;;8.35;75.95;98511.87;78972;1300;3013225;-64
2024/04/21 17:16:49;;;;;;;3.00;0.50;;;;;;;8.35;76.28;98515.73;77823;1314;3027710;-64
2024/04/21 17:19:16;;;;;;;2.00;1.10;;;;;;;8.65;75.10;98552.71;78967;1307;3013487;-64
2024/04/21 17:21:43;;;;;;;1.80;1.00;;;;;;;8.80;73.98;98545.09;79352;1301;3011812;-63
2024/04/21 17:24:11;;;;;;;1.60;0.90;;;;;;;8.80;73.87;98530.41;78116;1303;3028015;-66
2024/04/21 17:26:37;;;;;;;2.10;0.60;;;;;;;8.65;74.47;98547.45;79366;1319;3012953;-65
2024/04/21 17:29:04;;;;;;;2.70;0.70;;;;;;;8.62;75.12;98542.79;79185;1303;3013582;-64
2024/04/21 17:31:32;;;;;;;5.30;0.70;;;;;;;8.63;75.10;98551.10;78999;1301;3029332;-64
2024/04/21 17:33:59;;;;;;;1.00;0.40;;;;;;;8.51;75.94;98557.98;79891;1301;3012978;-63
2024/04/21 17:36:25;;;;;;;0.60;0.40;;;;;;;8.38;76.45;98572.42;81744;1301;3011116;-65
2024/04/21 17:38:53;;;;;;;4.90;0.80;;;;;;;8.30;77.13;98571.39;79865;1299;3024619;-64
2024/04/21 17:41:23;;;;;;;4.10;1.10;;;;;;;8.30;77.02;98567.91;79474;1299;3013711;-65
2024/04/21 17:43:52;;;;;;;1.20;0.50;;;;;;;8.19;77.58;98579.58;80102;1298;3011567;-64
2024/04/21 17:46:18;;;;;;;3.40;0.80;;;;;;;8.74;75.66;98580.88;81885;1301;3012669;-63
2024/04/21 17:48:45;;;;;;;3.10;1.40;;;;;;;8.68;75.05;98585.98;81856;1298;3011426;-65
2024/04/21 17:51:13;;;;;;;2.60;1.20;;;;;;;8.70;75.01;98586.77;78256;1298;3025727;-65
2024/04/21 17:53:41;;;;;;;2.30;0.90;;;;;;;8.63;75.12;98576.20;79095;1299;3015005;-65
2024/04/21 17:56:08;;;;;;;1.50;0.90;;;;;;;8.59;75.29;98575.42;79631;1299;3011556;-64
2024/04/21 17:58:36;;;;;;;4.80;0.60;;;;;;;8.46;75.82;98595.83;78092;1302;3049115;-61
2024/04/21 18:01:07;;;;;;;1.00;0.60;;;;;;;8.45;75.92;98580.70;79172;1310;3018623;-65
2024/04/21 18:03:35;;;;;;;0.50;0.40;;;;;;;8.34;76.49;98592.05;78428;1302;3069256;-65
2024/04/21 18:06:06;;;;;;;1.40;0.70;;;;;;;8.25;76.88;98606.39;80356;1295;3020595;-63
2024/04/21 18:08:34;;;;;;;4.00;0.80;;;;;;;8.24;77.36;98592.86;80590;1296;3048363;-64
2024/04/21 18:11:02;;;;;;;0.90;0.40;;;;;;;8.25;77.64;98599.99;81848;1300;3013211;-63
2024/04/21 18:13:29;;;;;;;2.00;0.60;;;;;;;8.73;76.08;98610.27;81854;1296;3011403;-64
2024/04/21 18:15:57;;;;;;;1.60;0.60;;;;;;;8.87;74.82;98601.68;79302;1300;3053723;-63
2024/04/21 18:18:23;;;;;;;1.00;0.50;;;;;;;8.79;74.79;98606.59;80823;1300;3018527;-63
2024/04/21 18:20:50;;;;;;;3.10;0.70;;;;;;;8.71;75.40;98604.86;78995;1304;3013231;-62
2024/04/21 18:23:18;;;;;;;1.00;0.40;;;;;;;8.62;75.97;98605.98;77890;1310;3028880;-63
2024/04/21 18:25:45;;;;;;;0.30;0.30;;;;;;;8.38;76.85;98625.48;79457;1299;3013631;-64
2024/04/21 18:28:11;;;;;;;1.50;0.50;;;;;;;8.17;77.82;98626.62;79552;1304;3011445;-66
2024/04/21 18:30:39;;;;;;;1.10;0.60;;;;;;;8.05;78.56;98642.91;78153;1300;3026155;-66
2024/04/21 18:33:06;;;;;;;1.40;0.90;;;;;;;7.97;78.87;98644.63;79192;1300;3013853;-66